createdAt,value
2018-02-13T00:01:50.595Z,9.45
2018-02-13T00:04:17.161Z,9.85
2018-02-13T00:06:43.739Z,10.40
2018-02-13T00:09:10.342Z,10.60
2018-02-13T00:11:36.919Z,9.82
2018-02-13T00:14:03.494Z,10.30
2018-02-13T00:16:30.074Z,10.57
2018-02-13T00:18:56.651Z,9.90
2018-02-13T00:21:23.242Z,10.90
2018-02-13T00:23:49.817Z,9.90
2018-02-13T00:26:16.395Z,11.48
2018-02-13T00:28:43.283Z,13.50
2018-02-13T00:31:09.863Z,11.52
2018-02-13T00:33:36.439Z,11.40
2018-02-13T00:36:03.218Z,12.23
2018-02-13T00:38:29.803Z,10.80
2018-02-13T00:40:56.403Z,11.82
2018-02-13T00:43:22.999Z,11.35
2018-02-13T00:45:49.575Z,11.52
2018-02-13T00:48:16.150Z,12.63
2018-02-13T00:50:42.739Z,11.30
2018-02-13T00:53:09.323Z,12.88
2018-02-13T00:55:35.902Z,11.70
2018-02-13T00:58:02.499Z,11.98
2018-02-13T01:00:29.083Z,13.60
2018-02-13T01:02:55.658Z,10.77
2018-02-13T01:05:22.341Z,11.75
2018-02-13T01:07:48.922Z,11.80
2018-02-13T01:10:15.503Z,12.18
2018-02-13T01:12:42.110Z,11.88
2018-02-13T01:15:08.693Z,13.45
2018-02-13T01:17:35.318Z,13.00
2018-02-13T01:20:01.878Z,12.55
2018-02-13T01:22:28.464Z,13.98
2018-02-13T01:24:55.038Z,13.75
2018-02-13T01:27:21.647Z,13.43
2018-02-13T01:29:48.230Z,13.00
2018-02-13T01:32:14.806Z,13.35
2018-02-13T01:34:41.387Z,12.95
2018-02-13T01:37:07.972Z,14.20
2018-02-13T01:39:34.561Z,12.85
2018-02-13T01:42:01.148Z,12.73
2018-02-13T01:44:27.722Z,13.88
2018-02-13T01:46:54.306Z,13.75
2018-02-13T01:49:21.008Z,13.57
2018-02-13T01:51:47.578Z,13.02
2018-02-13T01:54:14.150Z,14.13
2018-02-13T01:56:40.746Z,14.60
2018-02-13T01:59:07.326Z,13.93
2018-02-13T02:01:33.906Z,14.23
2018-02-13T02:04:00.510Z,12.80
2018-02-13T02:06:27.094Z,14.38
2018-02-13T02:08:53.667Z,14.35
2018-02-13T02:11:20.570Z,14.18
2018-02-13T02:13:47.175Z,13.65
2018-02-13T02:16:13.739Z,14.57
2018-02-13T02:18:40.338Z,14.40
2018-02-13T02:21:06.924Z,14.13
2018-02-13T02:23:33.498Z,14.65
2018-02-13T02:26:00.082Z,15.65
2018-02-13T02:28:27.039Z,15.57
2018-02-13T02:30:53.618Z,15.45
2018-02-13T02:33:20.198Z,14.75
2018-02-13T02:35:46.808Z,14.55
2018-02-13T02:38:13.396Z,13.07
2018-02-13T02:40:39.971Z,14.02
2018-02-13T02:43:06.563Z,14.80
2018-02-13T02:45:33.130Z,14.30
2018-02-13T02:47:59.719Z,14.95
2018-02-13T02:50:26.324Z,15.05
2018-02-13T02:52:52.899Z,15.32
2018-02-13T02:55:19.491Z,14.70
2018-02-13T02:57:46.362Z,15.38
2018-02-13T03:00:12.939Z,14.45
2018-02-13T03:02:39.513Z,15.20
2018-02-13T03:05:06.375Z,13.73
2018-02-13T03:07:32.955Z,16.98
2018-02-13T03:09:59.539Z,14.30
2018-02-13T03:12:26.139Z,15.60
2018-02-13T03:14:52.718Z,15.45
2018-02-13T03:17:19.299Z,14.45
2018-02-13T03:19:46.086Z,14.30
2018-02-13T03:22:12.659Z,15.15
2018-02-13T03:24:39.238Z,15.55
2018-02-13T03:27:05.822Z,16.60
2018-02-13T03:29:32.406Z,16.48
2018-02-13T03:31:59.257Z,16.00
2018-02-13T03:34:25.843Z,15.35
2018-02-13T03:36:52.422Z,15.52
2018-02-13T03:39:19.018Z,14.43
2018-02-13T03:41:45.595Z,13.93
2018-02-13T03:44:12.170Z,12.95
2018-02-13T03:46:38.774Z,16.20
2018-02-13T03:49:05.355Z,14.82
2018-02-13T03:51:31.931Z,14.35
2018-02-13T03:53:58.520Z,15.90
2018-02-13T03:56:25.099Z,15.85
2018-02-13T03:58:51.678Z,14.25
2018-02-13T04:01:18.388Z,16.42
2018-02-13T04:03:44.970Z,16.23
2018-02-13T04:06:11.551Z,16.98
2018-02-13T04:08:38.146Z,17.15
2018-02-13T04:11:04.726Z,16.30
2018-02-13T04:13:31.308Z,14.50
2018-02-13T04:15:57.901Z,14.00
2018-02-13T04:18:24.486Z,15.38
2018-02-13T04:20:51.063Z,16.58
2018-02-13T04:23:17.922Z,17.25
2018-02-13T04:25:44.503Z,15.90
2018-02-13T04:28:11.083Z,16.62
2018-02-13T04:30:37.678Z,16.92
2018-02-13T04:33:04.260Z,17.67
2018-02-13T04:35:30.845Z,16.50
2018-02-13T04:37:57.432Z,14.23
2018-02-13T04:40:24.014Z,19.60
2018-02-13T04:42:50.587Z,17.73
2018-02-13T04:45:17.206Z,16.15
2018-02-13T04:47:43.783Z,17.30
2018-02-13T04:50:10.366Z,16.75
2018-02-13T04:52:36.954Z,15.73
2018-02-13T04:55:03.542Z,18.65
2018-02-13T04:57:30.110Z,15.75
2018-02-13T04:59:56.706Z,17.40
2018-02-13T05:02:23.290Z,15.90
2018-02-13T05:04:49.875Z,17.10
2018-02-13T05:07:16.730Z,17.42
2018-02-13T05:09:43.314Z,17.83
2018-02-13T05:12:09.895Z,17.02
2018-02-13T05:14:36.843Z,17.40
2018-02-13T05:17:03.422Z,15.90
2018-02-13T05:19:29.999Z,19.20
2018-02-13T05:21:56.583Z,20.10
2018-02-13T05:24:23.160Z,16.10
2018-02-13T05:26:49.758Z,18.62
2018-02-13T05:29:16.347Z,18.08
2018-02-13T05:31:42.927Z,18.80
2018-02-13T05:34:09.526Z,18.15
2018-02-13T05:36:36.099Z,17.40
2018-02-13T05:39:02.687Z,19.40
2018-02-13T05:41:29.634Z,18.75
2018-02-13T05:43:56.222Z,19.90
2018-02-13T05:46:22.790Z,17.62
2018-02-13T05:48:49.639Z,20.40
2018-02-13T05:51:16.214Z,18.02
2018-02-13T05:53:42.795Z,19.70
2018-02-13T05:56:09.792Z,18.50
2018-02-13T05:58:36.373Z,20.60
2018-02-13T06:01:02.956Z,20.30
2018-02-13T06:03:29.555Z,19.17
2018-02-13T06:05:56.135Z,19.95
2018-02-13T06:08:22.715Z,18.58
2018-02-13T06:10:49.679Z,20.35
2018-02-13T06:13:16.249Z,19.95
2018-02-13T06:15:42.835Z,19.83
2018-02-13T06:18:09.434Z,20.50
2018-02-13T06:20:36.015Z,21.55
2018-02-13T06:23:02.594Z,20.98
2018-02-13T06:25:29.184Z,20.45
2018-02-13T06:27:55.778Z,20.25
2018-02-13T06:30:23.278Z,18.85
2018-02-13T06:32:49.854Z,18.95
2018-02-13T06:35:16.434Z,18.85
2018-02-13T06:37:43.046Z,19.33
2018-02-13T06:40:09.627Z,18.40
2018-02-13T06:42:36.212Z,20.00
2018-02-13T06:45:02.981Z,19.73
2018-02-13T06:47:29.563Z,19.37
2018-02-13T06:49:56.139Z,20.70
2018-02-13T06:52:22.758Z,19.67
2018-02-13T06:54:49.333Z,19.05
2018-02-13T06:57:15.918Z,19.08
2018-02-13T06:59:42.494Z,19.50
2018-02-13T07:02:09.076Z,19.33
2018-02-13T07:04:35.653Z,19.87
2018-02-13T07:07:02.242Z,19.20
2018-02-13T07:09:28.827Z,20.02
2018-02-13T07:11:55.411Z,20.52
2018-02-13T07:14:22.091Z,20.15
2018-02-13T07:16:48.667Z,21.65
2018-02-13T07:19:15.254Z,20.90
2018-02-13T07:21:41.839Z,21.62
2018-02-13T07:24:08.424Z,22.58
2018-02-13T07:26:35.014Z,21.45
2018-02-13T07:29:01.593Z,21.87
2018-02-13T07:31:28.175Z,22.52
2018-02-13T07:33:54.775Z,21.45
2018-02-13T07:36:21.351Z,21.37
2018-02-13T07:38:47.940Z,23.92
2018-02-13T07:41:14.522Z,22.73
2018-02-13T07:43:41.102Z,23.48
2018-02-13T07:46:08.245Z,24.12
2018-02-13T07:48:35.215Z,23.92
2018-02-13T07:51:01.795Z,25.83
2018-02-13T07:53:28.375Z,26.48
2018-02-13T07:55:55.062Z,25.12
2018-02-13T07:58:21.634Z,25.83
2018-02-13T08:00:48.217Z,22.50
2018-02-13T08:03:14.820Z,26.20
2018-02-13T08:05:41.391Z,25.12
2018-02-13T08:08:07.971Z,25.35
2018-02-13T08:10:34.839Z,23.92
2018-02-13T08:13:01.415Z,25.10
2018-02-13T08:15:27.994Z,25.48
2018-02-13T08:17:54.573Z,25.80
2018-02-13T08:20:21.151Z,26.00
2018-02-13T08:22:47.739Z,23.92
2018-02-13T08:25:14.751Z,25.40
2018-02-13T08:27:41.327Z,26.40
2018-02-13T08:30:07.903Z,25.70
2018-02-13T08:32:35.477Z,25.65
2018-02-13T08:35:02.055Z,24.40
2018-02-13T08:37:28.634Z,27.05
2018-02-13T08:39:55.539Z,26.70
2018-02-13T08:42:22.115Z,26.30
2018-02-13T08:44:48.694Z,25.60
2018-02-13T08:47:15.318Z,26.45
2018-02-13T08:49:41.894Z,27.65
2018-02-13T08:52:08.475Z,25.62
2018-02-13T08:54:35.091Z,26.37
2018-02-13T08:57:01.939Z,26.50
2018-02-13T08:59:28.523Z,25.83
2018-02-13T09:01:55.115Z,23.20
2018-02-13T09:04:21.706Z,23.35
2018-02-13T09:06:48.351Z,23.67
2018-02-13T09:09:15.078Z,23.40
2018-02-13T09:11:41.671Z,22.10
2018-02-13T09:14:08.270Z,21.30
2018-02-13T09:16:35.127Z,23.70
2018-02-13T09:19:01.713Z,24.52
2018-02-13T09:21:28.295Z,24.23
2018-02-13T09:23:54.915Z,18.37
2018-02-13T09:26:21.499Z,20.48
2018-02-13T09:28:48.090Z,20.98
2018-02-13T09:31:15.251Z,17.55
2018-02-13T09:33:41.833Z,20.33
2018-02-13T09:36:08.421Z,19.75
2018-02-13T09:38:35.002Z,19.00
2018-02-13T09:41:01.898Z,22.67
2018-02-13T09:43:28.541Z,20.02
2018-02-13T09:45:55.074Z,17.70
2018-02-13T09:48:21.686Z,19.73
2018-02-13T09:50:48.262Z,20.52
2018-02-13T09:53:14.845Z,18.57
2018-02-13T09:55:41.536Z,16.00
2018-02-13T09:58:08.118Z,17.27
2018-02-13T10:00:34.694Z,17.63
2018-02-13T10:03:01.314Z,19.65
2018-02-13T10:05:27.890Z,19.63
2018-02-13T10:07:54.466Z,18.83
2018-02-13T10:10:21.213Z,17.97
2018-02-13T10:12:47.795Z,19.10
2018-02-13T10:15:14.603Z,18.97
2018-02-13T10:17:41.205Z,18.30
2018-02-13T10:20:07.778Z,18.07
2018-02-13T10:22:34.364Z,18.90
2018-02-13T10:25:00.962Z,17.60
2018-02-13T10:27:28.176Z,18.60
2018-02-13T10:29:54.761Z,15.47
2018-02-13T10:32:21.353Z,15.07
2018-02-13T10:34:47.938Z,15.60
2018-02-13T10:37:14.522Z,15.57
2018-02-13T10:39:41.121Z,14.90
2018-02-13T10:42:07.694Z,14.43
2018-02-13T10:44:34.272Z,15.00
2018-02-13T10:47:00.851Z,14.97
2018-02-13T10:49:27.427Z,15.20
2018-02-13T10:51:54.036Z,13.77
2018-02-13T10:54:20.615Z,15.30
2018-02-13T10:56:47.191Z,17.20
2018-02-13T10:59:13.792Z,15.13
2018-02-13T11:01:40.367Z,14.50
2018-02-13T11:04:06.939Z,13.00
2018-02-13T11:06:33.534Z,13.27
2018-02-13T11:09:00.107Z,13.90
2018-02-13T11:11:26.686Z,12.80
2018-02-13T11:13:53.522Z,15.30
2018-02-13T11:16:20.108Z,14.67
2018-02-13T11:18:46.679Z,14.57
2018-02-13T11:21:13.455Z,15.40
2018-02-13T11:23:40.043Z,17.70
2018-02-13T11:26:06.617Z,18.10
2018-02-13T11:28:33.209Z,18.07
2018-02-13T11:30:59.790Z,18.00
2018-02-13T11:33:26.363Z,17.13
2018-02-13T11:35:52.979Z,20.53
2018-02-13T11:38:19.554Z,32.87
2018-02-13T11:40:46.127Z,17.60
2018-02-13T11:43:13.158Z,17.80
2018-02-13T11:45:39.715Z,18.37
2018-02-13T11:48:06.295Z,16.73
2018-02-13T11:50:33.166Z,16.67
2018-02-13T11:52:59.727Z,18.00
2018-02-13T11:55:26.302Z,28.87
2018-02-13T11:57:52.910Z,17.77
2018-02-13T12:00:19.496Z,16.20
2018-02-13T12:02:46.067Z,16.67
2018-02-13T12:05:12.675Z,15.37
2018-02-13T12:07:39.254Z,16.07
2018-02-13T12:10:05.829Z,13.53
2018-02-13T12:12:32.415Z,12.90
2018-02-13T12:14:58.989Z,11.67
2018-02-13T12:17:25.570Z,12.20
2018-02-13T12:19:52.166Z,11.60
2018-02-13T12:22:18.751Z,11.80
2018-02-13T12:24:45.338Z,11.47
2018-02-13T12:27:12.112Z,11.07
2018-02-13T12:29:38.683Z,11.90
2018-02-13T12:32:05.263Z,11.43
2018-02-13T12:34:31.851Z,11.40
2018-02-13T12:36:58.432Z,10.23
2018-02-13T12:39:25.002Z,9.83
2018-02-13T12:41:51.680Z,9.40
2018-02-13T12:44:18.258Z,7.50
2018-02-13T12:46:44.826Z,8.57
2018-02-13T12:49:11.438Z,8.53
2018-02-13T12:51:38.002Z,9.33
2018-02-13T12:54:04.579Z,7.87
2018-02-13T12:56:31.174Z,8.50
2018-02-13T12:58:57.750Z,7.80
2018-02-13T13:01:24.332Z,8.70
2018-02-13T13:03:51.010Z,7.60
2018-02-13T13:06:17.586Z,8.00
2018-02-13T13:08:44.160Z,8.27
2018-02-13T13:11:10.728Z,7.63
2018-02-13T13:13:37.299Z,7.27
2018-02-13T13:16:03.898Z,7.10
2018-02-13T13:18:30.475Z,7.60
2018-02-13T13:20:57.091Z,7.03
2018-02-13T13:23:23.658Z,6.53
2018-02-13T13:25:50.235Z,6.97
2018-02-13T13:28:16.811Z,6.83
2018-02-13T13:30:43.406Z,6.67
2018-02-13T13:33:09.983Z,6.50
2018-02-13T13:35:36.560Z,6.13
2018-02-13T13:38:03.168Z,5.83
2018-02-13T13:40:29.729Z,6.53
2018-02-13T13:42:56.306Z,6.00
2018-02-13T13:45:23.326Z,6.00
2018-02-13T13:47:49.886Z,6.20
2018-02-13T13:50:16.463Z,6.20
2018-02-13T13:52:43.066Z,6.83
2018-02-13T13:55:09.640Z,6.03
2018-02-13T13:57:36.207Z,5.57
2018-02-13T14:00:02.795Z,5.93
2018-02-13T14:02:29.374Z,6.13
2018-02-13T14:04:55.938Z,5.53
2018-02-13T14:07:22.855Z,5.67
2018-02-13T14:09:49.422Z,5.70
2018-02-13T14:12:15.991Z,5.40
2018-02-13T14:14:42.862Z,5.87
2018-02-13T14:17:09.438Z,5.83
2018-02-13T14:19:36.079Z,5.30
2018-02-13T14:22:02.758Z,5.90
2018-02-13T14:24:29.333Z,6.17
2018-02-13T14:26:55.926Z,6.63
2018-02-13T14:29:22.509Z,5.40
2018-02-13T14:31:49.074Z,5.90
2018-02-13T14:34:15.646Z,5.83
2018-02-13T14:36:42.255Z,5.67
2018-02-13T14:39:08.819Z,5.47
2018-02-13T14:41:35.391Z,6.13
2018-02-13T14:44:02.283Z,5.47
2018-02-13T14:46:28.851Z,6.17
2018-02-13T14:48:55.433Z,6.20
2018-02-13T14:51:22.016Z,6.40
2018-02-13T14:53:48.587Z,6.00
2018-02-13T14:56:15.483Z,6.00
2018-02-13T14:58:42.078Z,5.63
2018-02-13T15:01:08.654Z,5.73
2018-02-13T15:03:35.226Z,6.73
2018-02-13T15:06:01.811Z,5.47
2018-02-13T15:08:28.385Z,5.73
2018-02-13T15:10:54.963Z,6.23
2018-02-13T15:13:21.657Z,5.73
2018-02-13T15:15:48.711Z,6.37
2018-02-13T15:18:15.286Z,5.23
2018-02-13T15:20:41.880Z,5.60
2018-02-13T15:23:08.448Z,5.23
2018-02-13T15:25:35.014Z,5.60
2018-02-13T15:28:01.876Z,5.50
2018-02-13T15:30:28.450Z,6.67
2018-02-13T15:32:55.024Z,5.90
2018-02-13T15:35:21.619Z,5.47
2018-02-13T15:37:48.197Z,5.50
2018-02-13T15:40:14.762Z,5.90
2018-02-13T15:42:41.368Z,5.10
2018-02-13T15:45:07.939Z,6.03
2018-02-13T15:47:34.506Z,6.80
2018-02-13T15:50:01.100Z,5.40
2018-02-13T15:52:27.682Z,5.97
2018-02-13T15:54:54.246Z,5.57
2018-02-13T15:57:21.158Z,6.33
2018-02-13T15:59:47.730Z,6.47
2018-02-13T16:02:14.302Z,6.23
2018-02-13T16:04:41.155Z,6.50
2018-02-13T16:07:07.731Z,6.13
2018-02-13T16:09:34.306Z,7.80
2018-02-13T16:12:00.909Z,6.20
2018-02-13T16:14:27.487Z,6.20
2018-02-13T16:16:54.060Z,6.27
2018-02-13T16:19:20.680Z,6.03
2018-02-13T16:21:47.251Z,7.67
2018-02-13T16:24:13.824Z,5.80
2018-02-13T16:26:40.394Z,7.13
2018-02-13T16:29:06.966Z,6.87
2018-02-13T16:31:33.753Z,7.40
2018-02-13T16:34:00.327Z,7.60
2018-02-13T16:36:26.892Z,8.00
2018-02-13T16:38:53.579Z,7.40
2018-02-13T16:41:20.172Z,8.13
2018-02-13T16:43:46.744Z,6.00
2018-02-13T16:46:13.334Z,5.37
2018-02-13T16:48:39.902Z,5.37
2018-02-13T16:51:06.479Z,5.90
2018-02-13T16:53:33.876Z,8.17
2018-02-13T16:56:00.447Z,7.07
2018-02-13T16:58:27.022Z,6.40
2018-02-13T17:00:53.773Z,6.80
2018-02-13T17:03:20.325Z,7.60
2018-02-13T17:05:46.903Z,8.00
2018-02-13T17:08:13.699Z,10.20
2018-02-13T17:10:40.278Z,7.37
2018-02-13T17:13:06.858Z,7.13
2018-02-13T17:15:33.445Z,9.00
2018-02-13T17:18:00.023Z,8.63
2018-02-13T17:20:26.614Z,10.17
2018-02-13T17:22:53.191Z,9.63
2018-02-13T17:25:19.776Z,10.20
2018-02-13T17:27:46.387Z,11.33
2018-02-13T17:30:12.970Z,14.03
2018-02-13T17:32:39.551Z,11.80
2018-02-13T17:35:06.233Z,10.13
2018-02-13T17:37:32.818Z,11.33
2018-02-13T17:39:59.395Z,11.13
2018-02-13T17:42:26.003Z,10.47
2018-02-13T17:44:52.578Z,11.10
2018-02-13T17:47:19.158Z,10.30
2018-02-13T17:49:45.740Z,11.13
2018-02-13T17:52:12.322Z,10.40
2018-02-13T17:54:38.910Z,9.83
2018-02-13T17:57:05.482Z,9.90
2018-02-13T17:59:32.060Z,9.53
2018-02-13T18:01:58.754Z,10.10
2018-02-13T18:04:25.326Z,10.60
2018-02-13T18:06:51.902Z,10.87
2018-02-13T18:09:18.494Z,11.20
2018-02-13T18:11:45.087Z,13.90
2018-02-13T18:14:11.679Z,13.50
2018-02-13T18:16:38.580Z,11.30
2018-02-13T18:19:05.160Z,10.50
2018-02-13T18:21:31.955Z,10.90
2018-02-13T18:23:58.551Z,12.60
2018-02-13T18:26:25.126Z,11.40
2018-02-13T18:28:51.702Z,12.40
2018-02-13T18:31:18.298Z,9.87
2018-02-13T18:33:44.871Z,11.40
2018-02-13T18:36:11.457Z,10.40
2018-02-13T18:38:38.068Z,9.70
2018-02-13T18:41:04.634Z,9.67
2018-02-13T18:43:31.207Z,10.27
2018-02-13T18:45:57.782Z,11.73
2018-02-13T18:48:24.484Z,10.17
2018-02-13T18:50:51.059Z,9.87
2018-02-13T18:53:17.635Z,10.50
2018-02-13T18:55:44.238Z,10.27
2018-02-13T18:58:10.810Z,10.90
2018-02-13T19:00:37.411Z,11.30
2018-02-13T19:03:03.999Z,10.70
2018-02-13T19:05:30.571Z,10.53
2018-02-13T19:07:57.146Z,10.87
2018-02-13T19:10:23.944Z,10.33
2018-02-13T19:12:50.511Z,11.47
2018-02-13T19:15:17.822Z,10.93
2018-02-13T19:17:44.522Z,11.27
2018-02-13T19:20:11.094Z,11.47
2018-02-13T19:22:37.677Z,11.57
2018-02-13T19:25:04.279Z,12.00
2018-02-13T19:27:30.866Z,12.55
2018-02-13T19:29:57.455Z,11.50
2018-02-13T19:32:24.057Z,11.98
2018-02-13T19:34:50.646Z,11.40
2018-02-13T19:37:17.234Z,11.00
2018-02-13T19:39:44.086Z,9.55
2018-02-13T19:42:10.671Z,10.93
2018-02-13T19:44:37.267Z,11.12
2018-02-13T19:47:03.887Z,11.30
2018-02-13T19:49:30.471Z,10.52
2018-02-13T19:51:57.065Z,11.10
2018-02-13T19:54:23.687Z,10.68
2018-02-13T19:56:50.277Z,10.73
2018-02-13T19:59:16.863Z,10.80
2018-02-13T20:01:43.471Z,10.10
2018-02-13T20:04:10.054Z,10.93
2018-02-13T20:06:36.651Z,10.95
2018-02-13T20:09:04.144Z,11.80
2018-02-13T20:11:30.722Z,10.13
2018-02-13T20:13:57.311Z,13.07
2018-02-13T20:16:24.255Z,12.82
2018-02-13T20:18:50.835Z,11.00
2018-02-13T20:21:17.426Z,12.68
2018-02-13T20:23:44.262Z,11.45
2018-02-13T20:26:10.833Z,11.60
2018-02-13T20:28:37.440Z,11.10
2018-02-13T20:31:04.035Z,11.52
2018-02-13T20:33:30.608Z,11.30
2018-02-13T20:35:57.216Z,12.00
2018-02-13T20:38:24.568Z,12.40
2018-02-13T20:40:51.158Z,10.32
2018-02-13T20:43:17.758Z,10.55
2018-02-13T20:45:44.342Z,10.35
2018-02-13T20:48:10.927Z,11.00
2018-02-13T20:50:37.530Z,11.18
2018-02-13T20:53:04.114Z,10.57
2018-02-13T20:55:30.708Z,10.70
2018-02-13T20:57:57.323Z,12.40
2018-02-13T21:00:23.898Z,9.88
2018-02-13T21:02:50.484Z,11.32
2018-02-13T21:05:17.378Z,10.27
2018-02-13T21:07:43.954Z,11.30
2018-02-13T21:10:10.539Z,10.32
2018-02-13T21:12:37.139Z,10.10
2018-02-13T21:15:03.722Z,10.50
2018-02-13T21:17:30.302Z,10.63
2018-02-13T21:19:56.890Z,11.90
2018-02-13T21:22:23.495Z,12.02
2018-02-13T21:24:50.084Z,10.65
2018-02-13T21:27:16.662Z,10.95
2018-02-13T21:29:43.246Z,11.05
2018-02-13T21:32:09.837Z,11.48
2018-02-13T21:34:36.447Z,12.02
2018-02-13T21:37:03.043Z,11.30
2018-02-13T21:39:29.625Z,11.35
2018-02-13T21:41:56.230Z,11.80
2018-02-13T21:44:22.828Z,10.98
2018-02-13T21:46:49.404Z,11.70
2018-02-13T21:49:16.303Z,12.85
2018-02-13T21:51:42.885Z,11.90
2018-02-13T21:54:09.466Z,11.25
2018-02-13T21:56:36.157Z,10.55
2018-02-13T21:59:02.738Z,11.70
2018-02-13T22:01:29.314Z,11.77
2018-02-13T22:03:55.901Z,11.80
2018-02-13T22:06:22.507Z,12.52
2018-02-13T22:08:49.083Z,13.07
2018-02-13T22:11:15.671Z,12.90
2018-02-13T22:13:42.265Z,10.40
2018-02-13T22:16:08.846Z,12.20
2018-02-13T22:18:35.427Z,11.57
2018-02-13T22:21:02.047Z,11.15
2018-02-13T22:23:28.630Z,11.48
2018-02-13T22:25:55.216Z,11.52
2018-02-13T22:28:22.075Z,11.50
2018-02-13T22:30:48.654Z,11.20
2018-02-13T22:33:15.239Z,12.40
2018-02-13T22:35:41.838Z,11.60
2018-02-13T22:38:08.418Z,11.57
2018-02-13T22:40:35.000Z,12.55
2018-02-13T22:43:01.871Z,13.00
2018-02-13T22:45:28.446Z,12.05
2018-02-13T22:47:55.026Z,11.32
2018-02-13T22:50:21.710Z,10.93
2018-02-13T22:52:48.295Z,10.90
2018-02-13T22:55:14.867Z,11.88
2018-02-13T22:57:41.450Z,11.68
2018-02-13T23:00:08.031Z,9.75
2018-02-13T23:02:34.909Z,11.10
2018-02-13T23:05:01.443Z,11.55
2018-02-13T23:07:28.038Z,11.02
2018-02-13T23:09:54.914Z,11.23
2018-02-13T23:12:21.502Z,12.10
2018-02-13T23:14:48.084Z,12.02
2018-02-13T23:17:14.755Z,13.40
2018-02-13T23:19:41.339Z,13.02
2018-02-13T23:22:07.925Z,12.40
2018-02-13T23:24:34.814Z,12.30
2018-02-13T23:27:01.399Z,13.07
2018-02-13T23:29:27.981Z,13.25
2018-02-13T23:31:54.591Z,12.20
2018-02-13T23:34:21.181Z,12.35
2018-02-13T23:36:47.754Z,12.37
2018-02-13T23:39:14.331Z,11.63
2018-02-13T23:41:40.912Z,15.13
2018-02-13T23:44:07.527Z,13.07
2018-02-13T23:46:34.111Z,10.63
2018-02-13T23:49:00.683Z,11.75
2018-02-13T23:51:27.292Z,10.75
2018-02-13T23:53:53.862Z,10.68
2018-02-13T23:56:20.442Z,10.95
2018-02-13T23:58:47.030Z,10.40
